sensor_id;sensor_type;location;lat;lon;timestamp;pressure;altitude;pressure_sealevel;temperature;humidity
23016;BME280;11674;52.428;13.584;2023-09-30T00:01:56;101671.44;;;19.23;64.47
23016;BME280;11674;52.428;13.584;2023-09-30T00:07:03;101696.94;;;19.27;64.74
23016;BME280;11674;52.428;13.584;2023-09-30T00:12:11;101704.28;;;19.06;64.71
23016;BME280;11674;52.428;13.584;2023-09-30T00:17:17;101701.84;;;18.82;64.82
23016;BME280;11674;52.428;13.584;2023-09-30T00:22:25;101703.00;;;18.81;65.13
23016;BME280;11674;52.428;13.584;2023-09-30T00:27:32;101716.59;;;18.88;64.87
23016;BME280;11674;52.428;13.584;2023-09-30T00:32:39;101719.25;;;18.93;64.76
23016;BME280;11674;52.428;13.584;2023-09-30T00:37:46;101750.72;;;18.95;64.63
23016;BME280;11674;52.428;13.584;2023-09-30T00:42:53;101753.00;;;18.93;64.24
23016;BME280;11674;52.428;13.584;2023-09-30T00:48:01;101747.19;;;18.89;63.97
23016;BME280;11674;52.428;13.584;2023-09-30T00:53:08;101755.09;;;18.79;63.90
23016;BME280;11674;52.428;13.584;2023-09-30T00:58:15;101773.88;;;18.70;63.60
23016;BME280;11674;52.428;13.584;2023-09-30T01:03:23;101760.72;;;18.57;63.12
23016;BME280;11674;52.428;13.584;2023-09-30T01:08:30;101771.91;;;18.48;63.26
23016;BME280;11674;52.428;13.584;2023-09-30T01:13:38;101785.03;;;18.39;62.75
23016;BME280;11674;52.428;13.584;2023-09-30T01:18:45;101783.50;;;18.33;62.90
23016;BME280;11674;52.428;13.584;2023-09-30T01:23:52;101779.25;;;18.22;62.83
23016;BME280;11674;52.428;13.584;2023-09-30T01:28:59;101790.41;;;18.14;62.54
23016;BME280;11674;52.428;13.584;2023-09-30T01:34:06;101801.84;;;18.04;62.24
23016;BME280;11674;52.428;13.584;2023-09-30T01:39:13;101798.13;;;17.95;62.25
23016;BME280;11674;52.428;13.584;2023-09-30T01:44:20;101823.59;;;17.85;62.10
23016;BME280;11674;52.428;13.584;2023-09-30T01:49:27;101822.56;;;17.81;61.79
23016;BME280;11674;52.428;13.584;2023-09-30T01:54:34;101844.09;;;17.72;62.00
23016;BME280;11674;52.428;13.584;2023-09-30T01:59:41;101845.88;;;17.68;62.07
23016;BME280;11674;52.428;13.584;2023-09-30T02:04:48;101849.41;;;17.60;61.90
23016;BME280;11674;52.428;13.584;2023-09-30T02:09:55;101850.41;;;17.50;62.23
23016;BME280;11674;52.428;13.584;2023-09-30T02:15:03;101867.97;;;17.42;62.35
23016;BME280;11674;52.428;13.584;2023-09-30T02:20:10;101867.84;;;17.34;62.13
23016;BME280;11674;52.428;13.584;2023-09-30T02:25:17;101879.44;;;17.27;62.51
23016;BME280;11674;52.428;13.584;2023-09-30T02:30:24;101890.75;;;17.22;62.69
23016;BME280;11674;52.428;13.584;2023-09-30T02:35:33;101888.13;;;17.12;62.41
23016;BME280;11674;52.428;13.584;2023-09-30T02:40:40;101885.19;;;17.04;62.60
23016;BME280;11674;52.428;13.584;2023-09-30T02:45:47;101893.97;;;16.97;62.65
23016;BME280;11674;52.428;13.584;2023-09-30T02:50:55;101912.66;;;16.88;62.94
23016;BME280;11674;52.428;13.584;2023-09-30T02:56:02;101919.44;;;16.82;63.16
23016;BME280;11674;52.428;13.584;2023-09-30T03:01:09;101930.50;;;16.74;63.29
23016;BME280;11674;52.428;13.584;2023-09-30T03:06:16;101943.50;;;16.70;63.09
23016;BME280;11674;52.428;13.584;2023-09-30T03:11:23;101939.09;;;16.64;63.56
23016;BME280;11674;52.428;13.584;2023-09-30T03:16:30;101926.81;;;16.60;63.75
23016;BME280;11674;52.428;13.584;2023-09-30T03:21:37;101938.09;;;16.55;63.45
23016;BME280;11674;52.428;13.584;2023-09-30T03:26:44;101946.56;;;16.50;64.11
23016;BME280;11674;52.428;13.584;2023-09-30T03:31:51;101955.88;;;16.45;64.29
23016;BME280;11674;52.428;13.584;2023-09-30T03:36:58;101952.84;;;16.37;64.38
23016;BME280;11674;52.428;13.584;2023-09-30T03:42:05;101954.59;;;16.33;64.09
23016;BME280;11674;52.428;13.584;2023-09-30T03:47:15;101951.03;;;16.27;64.67
23016;BME280;11674;52.428;13.584;2023-09-30T03:52:24;101956.69;;;16.22;64.50
23016;BME280;11674;52.428;13.584;2023-09-30T03:57:32;101966.00;;;16.18;64.92
23016;BME280;11674;52.428;13.584;2023-09-30T04:02:39;101971.66;;;16.13;65.31
23016;BME280;11674;52.428;13.584;2023-09-30T04:07:46;101968.91;;;16.08;65.27
23016;BME280;11674;52.428;13.584;2023-09-30T04:12:53;101965.88;;;16.04;65.82
23016;BME280;11674;52.428;13.584;2023-09-30T04:18:00;101964.78;;;16.00;65.77
23016;BME280;11674;52.428;13.584;2023-09-30T04:23:07;101984.44;;;15.95;65.95
23016;BME280;11674;52.428;13.584;2023-09-30T04:28:14;101998.50;;;15.90;66.23
23016;BME280;11674;52.428;13.584;2023-09-30T04:33:21;102005.56;;;15.83;66.61
23016;BME280;11674;52.428;13.584;2023-09-30T04:38:28;102003.38;;;15.80;66.70
23016;BME280;11674;52.428;13.584;2023-09-30T04:43:35;102000.31;;;15.76;66.61
23016;BME280;11674;52.428;13.584;2023-09-30T04:48:42;102006.78;;;15.72;66.63
23016;BME280;11674;52.428;13.584;2023-09-30T04:53:49;102006.53;;;15.68;66.62
23016;BME280;11674;52.428;13.584;2023-09-30T04:58:56;101998.75;;;15.65;66.81
23016;BME280;11674;52.428;13.584;2023-09-30T05:04:03;101992.88;;;15.62;66.88
23016;BME280;11674;52.428;13.584;2023-09-30T05:09:10;102010.81;;;15.61;67.09
23016;BME280;11674;52.428;13.584;2023-09-30T05:14:17;102012.22;;;15.58;66.81
23016;BME280;11674;52.428;13.584;2023-09-30T05:19:24;102022.88;;;15.56;67.04
23016;BME280;11674;52.428;13.584;2023-09-30T05:24:31;102030.19;;;15.52;67.36
23016;BME280;11674;52.428;13.584;2023-09-30T05:29:38;102032.69;;;15.54;67.20
23016;BME280;11674;52.428;13.584;2023-09-30T05:34:45;102030.72;;;15.54;67.41
23016;BME280;11674;52.428;13.584;2023-09-30T05:39:52;102054.75;;;15.60;67.45
23016;BME280;11674;52.428;13.584;2023-09-30T05:44:59;102047.19;;;15.61;67.61
23016;BME280;11674;52.428;13.584;2023-09-30T05:50:06;102056.13;;;15.63;67.90
23016;BME280;11674;52.428;13.584;2023-09-30T05:55:14;102059.94;;;15.72;67.83
23016;BME280;11674;52.428;13.584;2023-09-30T06:00:21;102063.31;;;15.74;67.95
23016;BME280;11674;52.428;13.584;2023-09-30T06:05:28;102080.69;;;15.71;67.83
23016;BME280;11674;52.428;13.584;2023-09-30T06:10:35;102077.63;;;15.67;67.83
23016;BME280;11674;52.428;13.584;2023-09-30T06:15:42;102084.84;;;15.73;67.94
23016;BME280;11674;52.428;13.584;2023-09-30T06:20:49;102085.66;;;15.79;67.92
23016;BME280;11674;52.428;13.584;2023-09-30T06:25:56;102087.25;;;15.90;67.97
23016;BME280;11674;52.428;13.584;2023-09-30T06:31:05;102098.88;;;16.02;68.08
23016;BME280;11674;52.428;13.584;2023-09-30T06:36:12;102107.44;;;16.15;68.11
23016;BME280;11674;52.428;13.584;2023-09-30T06:41:20;102116.81;;;16.29;68.12
23016;BME280;11674;52.428;13.584;2023-09-30T06:46:27;102111.69;;;16.41;67.95
23016;BME280;11674;52.428;13.584;2023-09-30T06:51:34;102118.56;;;16.54;67.87
23016;BME280;11674;52.428;13.584;2023-09-30T06:56:41;102131.78;;;16.72;67.58
23016;BME280;11674;52.428;13.584;2023-09-30T07:01:48;102131.63;;;16.87;67.50
23016;BME280;11674;52.428;13.584;2023-09-30T07:06:55;102148.38;;;16.92;67.42
23016;BME280;11674;52.428;13.584;2023-09-30T07:12:02;102154.50;;;16.94;67.27
23016;BME280;11674;52.428;13.584;2023-09-30T07:17:09;102155.75;;;17.06;67.27
23016;BME280;11674;52.428;13.584;2023-09-30T07:22:16;102156.38;;;17.22;67.30
23016;BME280;11674;52.428;13.584;2023-09-30T07:27:32;102176.44;;;17.34;67.22
23016;BME280;11674;52.428;13.584;2023-09-30T07:32:39;102170.63;;;17.49;66.79
23016;BME280;11674;52.428;13.584;2023-09-30T07:37:46;102181.88;;;17.49;66.61
23016;BME280;11674;52.428;13.584;2023-09-30T07:42:54;102175.66;;;17.52;66.53
23016;BME280;11674;52.428;13.584;2023-09-30T07:48:01;102186.28;;;17.55;66.41
23016;BME280;11674;52.428;13.584;2023-09-30T07:53:08;102186.31;;;17.73;66.41
23016;BME280;11674;52.428;13.584;2023-09-30T07:58:15;102195.03;;;17.72;66.08
23016;BME280;11674;52.428;13.584;2023-09-30T08:03:22;102196.09;;;17.76;66.10
23016;BME280;11674;52.428;13.584;2023-09-30T08:08:29;102202.69;;;17.85;65.89
23016;BME280;11674;52.428;13.584;2023-09-30T08:13:36;102202.81;;;17.75;65.85
23016;BME280;11674;52.428;13.584;2023-09-30T08:18:43;102209.59;;;17.74;65.66
23016;BME280;11674;52.428;13.584;2023-09-30T08:23:50;102216.28;;;17.78;65.55
23016;BME280;11674;52.428;13.584;2023-09-30T08:28:57;102221.19;;;17.86;65.40
23016;BME280;11674;52.428;13.584;2023-09-30T08:34:04;102224.31;;;18.03;65.32
23016;BME280;11674;52.428;13.584;2023-09-30T08:39:11;102222.25;;;18.27;64.85
23016;BME280;11674;52.428;13.584;2023-09-30T08:44:18;102224.97;;;18.50;64.66
23016;BME280;11674;52.428;13.584;2023-09-30T08:49:25;102223.34;;;18.63;64.36
23016;BME280;11674;52.428;13.584;2023-09-30T08:54:33;102213.06;;;18.72;64.14
23016;BME280;11674;52.428;13.584;2023-09-30T08:59:41;102219.06;;;18.65;64.11
23016;BME280;11674;52.428;13.584;2023-09-30T09:04:48;102210.84;;;18.69;63.77
23016;BME280;11674;52.428;13.584;2023-09-30T09:15:26;102208.03;;;18.69;62.92
23016;BME280;11674;52.428;13.584;2023-09-30T09:20:34;102210.25;;;18.72;62.59
23016;BME280;11674;52.428;13.584;2023-09-30T09:25:41;102208.66;;;18.79;62.64
23016;BME280;11674;52.428;13.584;2023-09-30T09:30:48;102206.41;;;18.95;62.64
23016;BME280;11674;52.428;13.584;2023-09-30T09:35:55;102210.06;;;19.09;62.02
23016;BME280;11674;52.428;13.584;2023-09-30T09:41:02;102209.22;;;19.08;61.99
23016;BME280;11674;52.428;13.584;2023-09-30T09:46:09;102209.84;;;19.19;61.83
23016;BME280;11674;52.428;13.584;2023-09-30T09:51:16;102202.78;;;19.35;61.36
23016;BME280;11674;52.428;13.584;2023-09-30T09:56:23;102216.94;;;19.57;60.97
23016;BME280;11674;52.428;13.584;2023-09-30T10:01:30;102210.78;;;19.68;60.64
23016;BME280;11674;52.428;13.584;2023-09-30T10:06:39;102215.56;;;19.81;60.73
23016;BME280;11674;52.428;13.584;2023-09-30T10:11:47;102202.44;;;19.99;60.57
23016;BME280;11674;52.428;13.584;2023-09-30T10:16:54;102205.59;;;20.33;59.86
23016;BME280;11674;52.428;13.584;2023-09-30T10:43:34;102208.69;;;20.75;56.36
23016;BME280;11674;52.428;13.584;2023-09-30T10:48:42;102207.59;;;20.63;55.88
23016;BME280;11674;52.428;13.584;2023-09-30T10:53:53;102201.69;;;20.73;55.45
23016;BME280;11674;52.428;13.584;2023-09-30T10:59:00;102214.38;;;20.84;55.60
23016;BME280;11674;52.428;13.584;2023-09-30T11:04:07;102224.06;;;20.91;55.06
23016;BME280;11674;52.428;13.584;2023-09-30T11:09:18;102207.22;;;21.08;54.70
23016;BME280;11674;52.428;13.584;2023-09-30T11:14:30;102195.81;;;21.22;53.61
23016;BME280;11674;52.428;13.584;2023-09-30T11:19:47;102211.50;;;21.36;53.84
23016;BME280;11674;52.428;13.584;2023-09-30T11:24:54;102207.78;;;21.19;53.48
23016;BME280;11674;52.428;13.584;2023-09-30T11:30:02;102192.94;;;21.05;53.12
23016;BME280;11674;52.428;13.584;2023-09-30T11:35:10;102189.66;;;21.20;52.79
23016;BME280;11674;52.428;13.584;2023-09-30T11:40:28;102184.59;;;21.39;52.33
23016;BME280;11674;52.428;13.584;2023-09-30T11:45:35;102181.03;;;21.81;51.99
23016;BME280;11674;52.428;13.584;2023-09-30T11:50:46;102188.84;;;22.09;51.07
23016;BME280;11674;52.428;13.584;2023-09-30T11:55:54;102172.06;;;22.04;51.32
23016;BME280;11674;52.428;13.584;2023-09-30T12:01:01;102166.06;;;22.06;50.62
23016;BME280;11674;52.428;13.584;2023-09-30T12:06:08;102164.25;;;21.76;51.13
23016;BME280;11674;52.428;13.584;2023-09-30T12:11:15;102179.47;;;21.49;51.06
23016;BME280;11674;52.428;13.584;2023-09-30T12:16:22;102162.34;;;21.46;50.88
23016;BME280;11674;52.428;13.584;2023-09-30T12:21:29;102158.59;;;21.93;50.78
23016;BME280;11674;52.428;13.584;2023-09-30T12:26:36;102152.09;;;22.35;49.99
23016;BME280;11674;52.428;13.584;2023-09-30T12:31:44;102156.13;;;22.80;49.18
23016;BME280;11674;52.428;13.584;2023-09-30T12:36:51;102148.00;;;23.16;48.57
23016;BME280;11674;52.428;13.584;2023-09-30T12:41:58;102144.03;;;23.66;48.35
23016;BME280;11674;52.428;13.584;2023-09-30T12:47:05;102135.25;;;23.80;47.52
23016;BME280;11674;52.428;13.584;2023-09-30T12:52:12;102129.00;;;23.95;47.41
23016;BME280;11674;52.428;13.584;2023-09-30T12:57:19;102124.84;;;23.92;46.84
23016;BME280;11674;52.428;13.584;2023-09-30T13:02:26;102124.38;;;23.61;46.83
23016;BME280;11674;52.428;13.584;2023-09-30T13:07:33;102132.06;;;23.61;45.72
23016;BME280;11674;52.428;13.584;2023-09-30T13:12:40;102137.25;;;23.79;45.90
23016;BME280;11674;52.428;13.584;2023-09-30T13:17:47;102139.53;;;23.86;45.08
23016;BME280;11674;52.428;13.584;2023-09-30T13:22:54;102137.75;;;24.02;45.47
23016;BME280;11674;52.428;13.584;2023-09-30T13:28:01;102121.41;;;23.99;45.10
23016;BME280;11674;52.428;13.584;2023-09-30T13:33:08;102134.66;;;23.95;44.38
23016;BME280;11674;52.428;13.584;2023-09-30T13:38:15;102124.94;;;23.75;43.78
23016;BME280;11674;52.428;13.584;2023-09-30T13:43:22;102127.50;;;23.48;43.20
23016;BME280;11674;52.428;13.584;2023-09-30T13:48:29;102124.66;;;23.48;43.56
23016;BME280;11674;52.428;13.584;2023-09-30T13:53:36;102130.13;;;23.24;43.49
23016;BME280;11674;52.428;13.584;2023-09-30T13:58:43;102136.94;;;22.94;43.35
23016;BME280;11674;52.428;13.584;2023-09-30T14:03:50;102131.00;;;22.78;43.67
23016;BME280;11674;52.428;13.584;2023-09-30T14:08:57;102139.66;;;22.73;43.51
23016;BME280;11674;52.428;13.584;2023-09-30T14:14:04;102139.44;;;22.49;43.35
23016;BME280;11674;52.428;13.584;2023-09-30T14:19:11;102130.25;;;22.35;43.30
23016;BME280;11674;52.428;13.584;2023-09-30T14:24:18;102133.59;;;22.29;43.29
23016;BME280;11674;52.428;13.584;2023-09-30T14:29:25;102133.31;;;22.05;43.39
23016;BME280;11674;52.428;13.584;2023-09-30T14:34:32;102121.69;;;21.89;43.29
23016;BME280;11674;52.428;13.584;2023-09-30T14:39:39;102115.03;;;22.02;43.44
23016;BME280;11674;52.428;13.584;2023-09-30T14:44:46;102118.16;;;22.18;43.35
23016;BME280;11674;52.428;13.584;2023-09-30T14:49:53;102116.50;;;22.08;43.00
23016;BME280;11674;52.428;13.584;2023-09-30T14:55:00;102106.84;;;22.09;43.34
23016;BME280;11674;52.428;13.584;2023-09-30T15:00:07;102098.38;;;22.09;43.22
23016;BME280;11674;52.428;13.584;2023-09-30T15:05:15;102089.25;;;22.04;42.74
23016;BME280;11674;52.428;13.584;2023-09-30T15:10:22;102094.75;;;21.92;43.04
23016;BME280;11674;52.428;13.584;2023-09-30T15:15:29;102091.75;;;21.88;42.96
23016;BME280;11674;52.428;13.584;2023-09-30T15:20:39;102091.25;;;21.86;42.58
23016;BME280;11674;52.428;13.584;2023-09-30T15:25:46;102086.94;;;21.72;42.80
23016;BME280;11674;52.428;13.584;2023-09-30T15:30:53;102096.38;;;21.59;43.17
23016;BME280;11674;52.428;13.584;2023-09-30T15:36:11;102078.09;;;21.39;42.80
23016;BME280;11674;52.428;13.584;2023-09-30T15:41:23;102089.38;;;21.31;43.29
23016;BME280;11674;52.428;13.584;2023-09-30T15:46:30;102097.84;;;21.22;42.93
23016;BME280;11674;52.428;13.584;2023-09-30T15:51:37;102115.75;;;21.09;43.34
23016;BME280;11674;52.428;13.584;2023-09-30T15:56:44;102119.38;;;21.01;43.66
23016;BME280;11674;52.428;13.584;2023-09-30T16:01:51;102116.03;;;20.91;43.95
23016;BME280;11674;52.428;13.584;2023-09-30T16:06:58;102116.63;;;20.88;43.78
23016;BME280;11674;52.428;13.584;2023-09-30T16:12:05;102128.06;;;20.83;44.20
23016;BME280;11674;52.428;13.584;2023-09-30T16:17:12;102122.22;;;20.71;44.46
23016;BME280;11674;52.428;13.584;2023-09-30T16:22:19;102125.63;;;20.59;44.41
23016;BME280;11674;52.428;13.584;2023-09-30T16:27:26;102131.03;;;20.47;44.73
23016;BME280;11674;52.428;13.584;2023-09-30T16:32:33;102142.91;;;20.36;45.33
23016;BME280;11674;52.428;13.584;2023-09-30T16:37:40;102144.84;;;20.27;45.59
23016;BME280;11674;52.428;13.584;2023-09-30T16:42:47;102135.31;;;20.14;45.70
23016;BME280;11674;52.428;13.584;2023-09-30T16:47:54;102136.81;;;19.98;45.87
23016;BME280;11674;52.428;13.584;2023-09-30T16:53:01;102136.53;;;19.86;45.85
23016;BME280;11674;52.428;13.584;2023-09-30T16:58:08;102145.03;;;19.73;46.42
23016;BME280;11674;52.428;13.584;2023-09-30T17:03:15;102141.94;;;19.61;46.67
23016;BME280;11674;52.428;13.584;2023-09-30T17:08:22;102126.75;;;19.48;46.65
23016;BME280;11674;52.428;13.584;2023-09-30T17:13:29;102129.28;;;19.36;47.18
23016;BME280;11674;52.428;13.584;2023-09-30T17:18:36;102136.28;;;19.25;47.15
23016;BME280;11674;52.428;13.584;2023-09-30T17:23:43;102140.66;;;19.18;47.30
23016;BME280;11674;52.428;13.584;2023-09-30T17:28:50;102139.19;;;19.07;47.64
23016;BME280;11674;52.428;13.584;2023-09-30T17:33:57;102145.69;;;18.94;47.75
23016;BME280;11674;52.428;13.584;2023-09-30T17:39:04;102141.41;;;18.83;47.97
23016;BME280;11674;52.428;13.584;2023-09-30T17:44:11;102147.22;;;18.73;48.35
23016;BME280;11674;52.428;13.584;2023-09-30T17:49:18;102164.00;;;18.64;48.58
23016;BME280;11674;52.428;13.584;2023-09-30T17:54:26;102158.56;;;18.54;48.91
23016;BME280;11674;52.428;13.584;2023-09-30T17:59:32;102155.94;;;18.44;49.00
23016;BME280;11674;52.428;13.584;2023-09-30T18:04:39;102158.91;;;18.34;49.04
23016;BME280;11674;52.428;13.584;2023-09-30T18:09:53;102166.03;;;18.27;49.33
23016;BME280;11674;52.428;13.584;2023-09-30T18:15:00;102179.03;;;18.23;49.30
23016;BME280;11674;52.428;13.584;2023-09-30T18:20:08;102173.28;;;18.14;49.84
23016;BME280;11674;52.428;13.584;2023-09-30T18:25:15;102179.91;;;18.05;50.19
23016;BME280;11674;52.428;13.584;2023-09-30T18:30:22;102174.44;;;17.95;50.26
23016;BME280;11674;52.428;13.584;2023-09-30T18:35:29;102180.22;;;17.85;50.76
23016;BME280;11674;52.428;13.584;2023-09-30T18:40:36;102176.44;;;17.76;50.98
23016;BME280;11674;52.428;13.584;2023-09-30T18:45:45;102179.06;;;17.67;51.21
23016;BME280;11674;52.428;13.584;2023-09-30T18:50:52;102180.63;;;17.60;51.13
23016;BME280;11674;52.428;13.584;2023-09-30T18:55:59;102187.72;;;17.52;51.40
23016;BME280;11674;52.428;13.584;2023-09-30T19:01:06;102176.88;;;17.46;51.62
23016;BME280;11674;52.428;13.584;2023-09-30T19:06:13;102175.56;;;17.38;51.65
23016;BME280;11674;52.428;13.584;2023-09-30T19:11:20;102168.31;;;17.32;52.04
23016;BME280;11674;52.428;13.584;2023-09-30T19:16:27;102178.25;;;17.25;52.44
23016;BME280;11674;52.428;13.584;2023-09-30T19:21:34;102179.97;;;17.21;52.44
23016;BME280;11674;52.428;13.584;2023-09-30T19:26:41;102183.69;;;17.16;52.49
23016;BME280;11674;52.428;13.584;2023-09-30T19:31:48;102177.06;;;17.07;52.74
23016;BME280;11674;52.428;13.584;2023-09-30T19:36:55;102177.97;;;17.03;52.83
23016;BME280;11674;52.428;13.584;2023-09-30T19:42:02;102188.41;;;16.97;53.05
23016;BME280;11674;52.428;13.584;2023-09-30T19:47:09;102197.75;;;16.88;53.16
23016;BME280;11674;52.428;13.584;2023-09-30T19:52:16;102198.09;;;16.81;53.50
23016;BME280;11674;52.428;13.584;2023-09-30T19:57:23;102189.75;;;16.76;53.82
23016;BME280;11674;52.428;13.584;2023-09-30T20:02:30;102192.03;;;16.74;53.61
23016;BME280;11674;52.428;13.584;2023-09-30T20:07:37;102194.63;;;16.66;53.91
23016;BME280;11674;52.428;13.584;2023-09-30T20:12:44;102192.19;;;16.59;54.01
23016;BME280;11674;52.428;13.584;2023-09-30T20:17:51;102185.25;;;16.52;54.37
23016;BME280;11674;52.428;13.584;2023-09-30T20:22:58;102193.13;;;16.50;54.77
23016;BME280;11674;52.428;13.584;2023-09-30T20:28:05;102189.72;;;16.53;54.33
23016;BME280;11674;52.428;13.584;2023-09-30T20:33:12;102190.31;;;16.50;54.63
23016;BME280;11674;52.428;13.584;2023-09-30T20:38:19;102179.69;;;16.47;54.77
23016;BME280;11674;52.428;13.584;2023-09-30T20:43:26;102187.28;;;16.46;54.86
23016;BME280;11674;52.428;13.584;2023-09-30T20:48:49;102183.06;;;16.49;55.23
23016;BME280;11674;52.428;13.584;2023-09-30T20:53:58;102185.81;;;16.54;55.39
23016;BME280;11674;52.428;13.584;2023-09-30T20:59:04;102178.47;;;16.58;55.44
23016;BME280;11674;52.428;13.584;2023-09-30T21:04:11;102175.78;;;16.48;55.61
23016;BME280;11674;52.428;13.584;2023-09-30T21:09:18;102179.22;;;16.40;55.80
23016;BME280;11674;52.428;13.584;2023-09-30T21:14:25;102175.56;;;16.34;55.99
23016;BME280;11674;52.428;13.584;2023-09-30T21:19:32;102177.31;;;16.30;56.07
23016;BME280;11674;52.428;13.584;2023-09-30T21:24:39;102179.03;;;16.26;56.19
23016;BME280;11674;52.428;13.584;2023-09-30T21:29:46;102181.81;;;16.26;55.70
23016;BME280;11674;52.428;13.584;2023-09-30T21:34:53;102183.28;;;16.19;56.17
23016;BME280;11674;52.428;13.584;2023-09-30T21:40:00;102188.41;;;16.12;56.38
23016;BME280;11674;52.428;13.584;2023-09-30T21:45:08;102189.56;;;16.06;56.32
23016;BME280;11674;52.428;13.584;2023-09-30T21:50:14;102182.03;;;16.01;56.53
23016;BME280;11674;52.428;13.584;2023-09-30T21:55:21;102185.38;;;16.03;56.57
23016;BME280;11674;52.428;13.584;2023-09-30T22:00:28;102183.38;;;16.09;56.50
23016;BME280;11674;52.428;13.584;2023-09-30T22:05:37;102177.72;;;16.14;56.69
23016;BME280;11674;52.428;13.584;2023-09-30T22:10:45;102191.19;;;16.12;56.71
23016;BME280;11674;52.428;13.584;2023-09-30T22:15:52;102199.25;;;16.18;57.02
23016;BME280;11674;52.428;13.584;2023-09-30T22:20:59;102193.03;;;16.26;56.72
23016;BME280;11674;52.428;13.584;2023-09-30T22:26:06;102182.09;;;16.25;56.92
23016;BME280;11674;52.428;13.584;2023-09-30T22:31:13;102177.59;;;16.29;57.04
23016;BME280;11674;52.428;13.584;2023-09-30T22:36:20;102178.44;;;16.29;57.14
23016;BME280;11674;52.428;13.584;2023-09-30T22:41:27;102173.38;;;16.31;56.88
23016;BME280;11674;52.428;13.584;2023-09-30T22:46:34;102182.25;;;16.38;57.02
23016;BME280;11674;52.428;13.584;2023-09-30T22:51:42;102178.63;;;16.43;57.38
23016;BME280;11674;52.428;13.584;2023-09-30T22:56:48;102183.34;;;16.47;57.39
23016;BME280;11674;52.428;13.584;2023-09-30T23:01:55;102181.06;;;16.49;57.42
23016;BME280;11674;52.428;13.584;2023-09-30T23:07:02;102183.06;;;16.49;57.54
23016;BME280;11674;52.428;13.584;2023-09-30T23:12:09;102178.88;;;16.46;57.45
23016;BME280;11674;52.428;13.584;2023-09-30T23:17:16;102179.22;;;16.40;57.78
23016;BME280;11674;52.428;13.584;2023-09-30T23:22:23;102172.47;;;16.41;57.72
23016;BME280;11674;52.428;13.584;2023-09-30T23:27:30;102175.50;;;16.44;57.76
23016;BME280;11674;52.428;13.584;2023-09-30T23:32:37;102171.03;;;16.43;57.71
23016;BME280;11674;52.428;13.584;2023-09-30T23:37:45;102174.41;;;16.45;57.53
23016;BME280;11674;52.428;13.584;2023-09-30T23:42:52;102186.19;;;16.42;57.71
23016;BME280;11674;52.428;13.584;2023-09-30T23:47:59;102185.34;;;16.42;57.97
23016;BME280;11674;52.428;13.584;2023-09-30T23:53:06;102184.81;;;16.35;58.01
23016;BME280;11674;52.428;13.584;2023-09-30T23:58:16;102180.47;;;16.19;58.04
